createdAt,value
2022-08-23T00:00:46.105Z,4.53
2022-08-23T00:03:14.536Z,4.40
2022-08-23T00:05:41.333Z,5.10
2022-08-23T00:08:08.213Z,4.90
2022-08-23T00:10:35.003Z,4.47
2022-08-23T00:13:01.902Z,5.03
2022-08-23T00:15:29.350Z,4.00
2022-08-23T00:17:56.277Z,4.80
2022-08-23T00:20:23.617Z,4.50
2022-08-23T00:22:50.537Z,4.73
2022-08-23T00:25:17.736Z,5.10
2022-08-23T00:27:44.941Z,4.93
2022-08-23T00:30:12.658Z,4.30
2022-08-23T00:32:40.235Z,4.90
2022-08-23T00:35:08.414Z,5.47
2022-08-23T00:37:35.282Z,5.17
2022-08-23T00:40:02.441Z,4.93
2022-08-23T00:42:48.220Z,5.20
2022-08-23T00:45:52.265Z,4.97
2022-08-23T00:48:19.084Z,5.00
2022-08-23T00:50:56.369Z,5.00
2022-08-23T00:53:28.766Z,5.07
2022-08-23T00:55:57.877Z,5.17
2022-08-23T00:58:25.349Z,5.00
2022-08-23T01:00:53.593Z,5.50
2022-08-23T01:03:22.266Z,4.70
2022-08-23T01:05:54.977Z,4.83
2022-08-23T01:08:23.761Z,4.77
2022-08-23T01:10:54.561Z,4.97
2022-08-23T01:13:27.342Z,4.70
2022-08-23T01:15:57.041Z,4.60
2022-08-23T01:18:26.126Z,5.30
2022-08-23T01:20:56.087Z,5.23
2022-08-23T01:23:22.957Z,4.70
2022-08-23T01:25:50.105Z,4.60
2022-08-23T01:28:18.234Z,4.77
2022-08-23T01:30:46.325Z,5.10
2022-08-23T01:33:13.452Z,5.17
2022-08-23T01:35:42.961Z,5.13
2022-08-23T01:38:10.992Z,5.47
2022-08-23T01:40:38.499Z,5.90
2022-08-23T01:43:06.459Z,5.40
2022-08-23T01:45:34.083Z,5.60
2022-08-23T01:48:02.019Z,5.20
2022-08-23T01:50:29.587Z,5.10
2022-08-23T01:52:58.760Z,5.43
2022-08-23T01:55:27.199Z,5.40
2022-08-23T01:57:56.900Z,5.37
2022-08-23T02:00:26.257Z,5.37
2022-08-23T02:02:53.929Z,5.33
2022-08-23T02:05:21.017Z,5.47
2022-08-23T02:07:47.937Z,5.50
2022-08-23T02:10:17.275Z,5.73
2022-08-23T02:12:44.567Z,5.90
2022-08-23T02:15:15.003Z,5.33
2022-08-23T02:17:44.367Z,5.40
2022-08-23T02:20:11.574Z,4.90
2022-08-23T02:22:39.665Z,5.13
2022-08-23T02:25:07.340Z,5.10
2022-08-23T02:27:34.643Z,5.00
2022-08-23T02:30:02.172Z,4.93
2022-08-23T02:32:29.857Z,5.33
2022-08-23T02:35:05.170Z,5.43
2022-08-23T02:37:34.607Z,5.53
2022-08-23T02:40:02.901Z,5.33
2022-08-23T02:42:30.444Z,5.60
2022-08-23T02:44:57.298Z,5.10
2022-08-23T02:47:26.182Z,5.77
2022-08-23T02:50:07.510Z,5.67
2022-08-23T02:52:35.313Z,5.77
2022-08-23T02:55:02.359Z,5.87
2022-08-23T02:57:30.964Z,5.80
2022-08-23T02:59:59.367Z,5.97
2022-08-23T03:02:26.399Z,5.90
2022-08-23T03:04:53.374Z,5.67
2022-08-23T03:07:20.270Z,5.73
2022-08-23T03:09:47.204Z,6.33
2022-08-23T03:12:14.346Z,6.07
2022-08-23T03:14:46.992Z,6.20
2022-08-23T03:17:14.535Z,6.27
2022-08-23T03:19:41.447Z,5.33
2022-08-23T03:22:08.657Z,6.10
2022-08-23T03:24:36.356Z,6.03
2022-08-23T03:27:03.675Z,6.60
2022-08-23T03:29:31.838Z,5.97
2022-08-23T03:32:01.276Z,6.50
2022-08-23T03:34:30.722Z,5.60
2022-08-23T03:36:58.952Z,5.67
2022-08-23T03:39:26.513Z,5.70
2022-08-23T03:41:54.766Z,6.00
2022-08-23T03:44:21.547Z,5.67
2022-08-23T03:46:48.882Z,5.77
2022-08-23T03:49:15.699Z,6.00
2022-08-23T03:51:52.722Z,5.83
2022-08-23T03:54:20.538Z,6.17
2022-08-23T03:56:55.847Z,6.17
2022-08-23T03:59:23.947Z,6.03
2022-08-23T04:01:50.855Z,5.93
2022-08-23T04:04:17.749Z,5.40
2022-08-23T04:07:17.800Z,6.10
2022-08-23T04:09:44.847Z,6.10
2022-08-23T04:12:17.534Z,6.67
2022-08-23T04:14:45.707Z,6.43
2022-08-23T04:17:15.449Z,6.07
2022-08-23T04:19:42.517Z,6.33
2022-08-23T04:22:13.403Z,6.53
2022-08-23T04:24:42.352Z,6.33
2022-08-23T04:27:10.328Z,7.03
2022-08-23T04:29:39.089Z,6.90
2022-08-23T04:32:09.767Z,6.43
2022-08-23T04:34:45.432Z,7.37
2022-08-23T04:37:12.889Z,6.53
2022-08-23T04:39:58.843Z,7.70
2022-08-23T04:42:30.869Z,6.70
2022-08-23T04:44:57.789Z,6.73
2022-08-23T04:47:24.638Z,6.70
2022-08-23T04:49:54.384Z,6.30
2022-08-23T04:52:21.232Z,6.33
2022-08-23T04:54:48.773Z,6.00
2022-08-23T04:57:38.566Z,5.93
2022-08-23T05:00:06.705Z,5.57
2022-08-23T05:02:33.692Z,5.67
2022-08-23T05:05:01.172Z,5.40
2022-08-23T05:07:40.052Z,5.13
2022-08-23T05:10:12.897Z,5.40
2022-08-23T05:12:42.625Z,5.47
2022-08-23T05:15:09.900Z,4.93
2022-08-23T05:17:40.022Z,4.90
2022-08-23T05:20:07.997Z,4.83
2022-08-23T05:22:36.628Z,4.97
2022-08-23T05:25:20.660Z,4.57
2022-08-23T05:27:48.023Z,4.80
2022-08-23T05:30:15.666Z,4.20
2022-08-23T05:32:43.891Z,4.30
2022-08-23T05:35:12.024Z,5.53
2022-08-23T05:37:42.032Z,4.50
2022-08-23T05:40:09.195Z,4.83
2022-08-23T05:42:43.705Z,4.30
2022-08-23T05:45:10.611Z,4.97
2022-08-23T05:47:39.202Z,4.60
2022-08-23T05:50:38.204Z,4.40
2022-08-23T05:53:05.559Z,4.77
2022-08-23T05:55:34.957Z,4.87
2022-08-23T05:58:19.841Z,4.80
2022-08-23T06:00:46.909Z,4.83
2022-08-23T06:03:14.375Z,4.20
2022-08-23T06:05:44.307Z,5.30
2022-08-23T06:08:12.018Z,4.43
2022-08-23T06:10:42.133Z,4.60
2022-08-23T06:13:21.208Z,4.83
2022-08-23T06:15:48.125Z,4.63
2022-08-23T06:18:15.180Z,4.93
2022-08-23T06:20:42.827Z,5.00
2022-08-23T06:23:14.943Z,5.93
2022-08-23T06:25:42.535Z,5.40
2022-08-23T06:28:15.139Z,5.23
2022-08-23T06:30:42.798Z,5.33
2022-08-23T06:33:20.849Z,5.37
2022-08-23T06:36:12.227Z,5.63
2022-08-23T06:39:06.926Z,4.80
2022-08-23T06:41:57.203Z,5.67
2022-08-23T06:44:27.260Z,5.43
2022-08-23T06:47:04.205Z,5.63
2022-08-23T06:49:31.227Z,5.70
2022-08-23T06:52:04.343Z,5.40
2022-08-23T06:55:11.772Z,5.33
2022-08-23T06:57:51.064Z,4.90
2022-08-23T07:00:26.457Z,4.83
2022-08-23T07:03:10.216Z,4.93
2022-08-23T07:05:56.303Z,4.77
2022-08-23T07:08:26.699Z,5.03
2022-08-23T07:10:55.764Z,4.70
2022-08-23T07:13:22.919Z,4.43
2022-08-23T07:15:50.768Z,4.43
2022-08-23T07:18:20.592Z,4.43
2022-08-23T07:20:48.647Z,5.40
2022-08-23T07:23:15.602Z,4.57
2022-08-23T07:25:43.689Z,5.10
2022-08-23T07:28:14.045Z,5.40
2022-08-23T07:30:45.140Z,4.50
2022-08-23T07:33:13.306Z,4.90
2022-08-23T07:35:59.971Z,4.60
2022-08-23T07:38:30.597Z,4.63
2022-08-23T07:40:58.929Z,4.10
2022-08-23T07:43:25.873Z,4.63
2022-08-23T07:45:53.617Z,4.07
2022-08-23T07:48:43.379Z,4.13
2022-08-23T07:51:14.532Z,3.57
2022-08-23T07:53:45.489Z,4.17
2022-08-23T07:56:15.273Z,3.87
2022-08-23T07:58:54.899Z,4.10
2022-08-23T08:01:35.511Z,3.73
2022-08-23T08:04:03.175Z,3.70
2022-08-23T08:06:35.148Z,3.13
2022-08-23T08:09:02.325Z,3.23
2022-08-23T08:11:34.529Z,3.57
2022-08-23T08:14:04.896Z,3.30
2022-08-23T08:16:36.396Z,3.50
2022-08-23T08:19:07.680Z,3.03
2022-08-23T08:21:53.596Z,2.87
2022-08-23T08:24:55.366Z,3.30
2022-08-23T08:27:22.379Z,3.50
2022-08-23T08:29:49.217Z,2.90
2022-08-23T08:32:15.986Z,3.57
2022-08-23T08:34:43.728Z,4.00
2022-08-23T08:37:11.334Z,3.07
2022-08-23T08:39:45.432Z,3.60
2022-08-23T08:42:18.097Z,3.37
2022-08-23T08:44:52.783Z,3.70
2022-08-23T08:47:27.828Z,3.23
2022-08-23T08:49:57.732Z,3.43
2022-08-23T08:52:26.651Z,3.20
2022-08-23T08:55:09.073Z,3.30
2022-08-23T08:57:43.825Z,2.90
2022-08-23T09:00:17.540Z,3.10
2022-08-23T09:02:45.779Z,2.80
2022-08-23T09:05:16.755Z,3.40
2022-08-23T09:07:50.530Z,2.70
2022-08-23T09:10:26.491Z,2.57
2022-08-23T09:13:11.435Z,2.80
2022-08-23T09:15:46.492Z,2.47
2022-08-23T09:18:14.618Z,2.40
2022-08-23T09:20:43.465Z,2.23
2022-08-23T09:23:14.339Z,1.90
2022-08-23T09:25:51.257Z,1.90
2022-08-23T09:28:18.094Z,2.13
2022-08-23T09:30:47.226Z,2.20
2022-08-23T09:33:15.430Z,1.90
2022-08-23T09:35:43.746Z,2.10
2022-08-23T09:38:20.314Z,3.93
2022-08-23T09:40:51.319Z,5.23
2022-08-23T09:43:20.163Z,2.80
2022-08-23T09:45:50.012Z,3.37
2022-08-23T09:48:39.409Z,3.80
2022-08-23T09:51:17.484Z,2.93
2022-08-23T09:53:49.445Z,2.43
2022-08-23T09:56:19.807Z,4.20
2022-08-23T09:58:50.561Z,5.97
2022-08-23T10:01:28.565Z,11.85
2022-08-23T10:04:10.355Z,3.47
2022-08-23T10:06:38.269Z,2.63
2022-08-23T10:09:07.461Z,4.40
2022-08-23T10:11:41.228Z,4.90
2022-08-23T10:14:15.312Z,6.25
2022-08-23T10:16:57.143Z,2.15
2022-08-23T10:19:34.731Z,7.20
2022-08-23T10:22:03.682Z,3.80
2022-08-23T10:24:33.715Z,2.25
2022-08-23T10:27:29.572Z,16.58
2022-08-23T10:30:16.816Z,3.75
2022-08-23T10:32:50.287Z,9.15
2022-08-23T10:35:44.391Z,5.70
2022-08-23T10:38:17.693Z,2.40
2022-08-23T10:40:52.754Z,1.75
2022-08-23T10:43:40.759Z,2.35
2022-08-23T10:46:08.427Z,2.65
2022-08-23T10:48:51.450Z,2.17
2022-08-23T10:51:31.775Z,2.70
2022-08-23T10:54:07.537Z,1.63
2022-08-23T10:56:36.546Z,1.73
2022-08-23T10:59:10.616Z,1.75
2022-08-23T11:01:46.719Z,1.52
2022-08-23T11:04:23.776Z,1.23
2022-08-23T11:07:02.224Z,1.23
2022-08-23T11:09:36.269Z,1.40
2022-08-23T11:12:20.533Z,1.50
2022-08-23T11:14:58.416Z,1.20
2022-08-23T11:17:30.280Z,1.10
2022-08-23T11:19:59.424Z,1.13
2022-08-23T11:22:29.470Z,1.30
2022-08-23T11:24:59.732Z,1.23
2022-08-23T11:27:33.787Z,1.40
2022-08-23T11:30:20.320Z,1.20
2022-08-23T11:33:00.342Z,1.05
2022-08-23T11:35:27.198Z,0.90
2022-08-23T11:38:02.233Z,1.10
2022-08-23T11:40:56.967Z,1.00
2022-08-23T11:43:31.668Z,1.00
2022-08-23T11:46:17.582Z,1.20
2022-08-23T11:48:49.427Z,1.10
2022-08-23T11:51:17.089Z,1.02
2022-08-23T11:53:54.754Z,0.98
2022-08-23T11:56:30.798Z,1.30
2022-08-23T11:59:23.807Z,0.85
2022-08-23T12:01:50.942Z,1.27
2022-08-23T12:04:38.109Z,1.17
2022-08-23T12:07:12.269Z,1.40
2022-08-23T12:09:41.791Z,0.88
2022-08-23T12:12:11.921Z,1.02
2022-08-23T12:14:45.278Z,1.10
2022-08-23T12:17:12.137Z,1.60
2022-08-23T12:19:48.903Z,1.20
2022-08-23T12:22:17.235Z,0.90
2022-08-23T12:24:47.021Z,1.10
2022-08-23T12:27:26.425Z,1.00
2022-08-23T12:29:59.004Z,1.40
2022-08-23T12:32:33.954Z,1.20
2022-08-23T12:35:23.457Z,1.17
2022-08-23T12:38:08.500Z,1.30
2022-08-23T12:40:39.821Z,1.10
2022-08-23T12:43:22.768Z,1.15
2022-08-23T12:45:51.899Z,1.23
2022-08-23T12:48:20.956Z,1.38
2022-08-23T12:50:57.020Z,0.88
2022-08-23T12:53:28.482Z,1.13
2022-08-23T12:56:00.590Z,0.93
2022-08-23T12:58:33.158Z,1.30
2022-08-23T13:01:03.566Z,1.23
2022-08-23T13:03:36.288Z,1.35
2022-08-23T13:06:12.004Z,1.55
2022-08-23T13:08:38.772Z,1.20
2022-08-23T13:11:08.312Z,1.30
2022-08-23T13:13:37.813Z,1.00
2022-08-23T13:16:26.804Z,0.95
2022-08-23T13:18:54.612Z,1.10
2022-08-23T13:21:26.068Z,1.30
2022-08-23T13:23:54.547Z,1.30
2022-08-23T13:26:27.574Z,1.10
2022-08-23T13:29:15.083Z,1.00
2022-08-23T13:31:49.412Z,1.35
2022-08-23T13:34:31.622Z,1.10
2022-08-23T13:36:59.282Z,0.80
2022-08-23T13:39:26.499Z,1.05
2022-08-23T13:41:53.390Z,1.20
2022-08-23T13:44:20.208Z,1.00
2022-08-23T13:46:47.904Z,1.05
2022-08-23T13:49:20.031Z,1.25
2022-08-23T13:52:17.222Z,1.10
2022-08-23T13:54:51.284Z,1.17
2022-08-23T13:57:20.713Z,0.97
2022-08-23T13:59:55.316Z,1.03
2022-08-23T14:02:23.143Z,1.20
2022-08-23T14:04:50.105Z,1.23
2022-08-23T14:07:17.540Z,1.40
2022-08-23T14:09:45.654Z,1.10
2022-08-23T14:12:17.124Z,1.20
2022-08-23T14:14:45.443Z,1.10
2022-08-23T14:17:12.873Z,1.10
2022-08-23T14:22:33.743Z,1.30
2022-08-23T14:25:01.174Z,1.17
2022-08-23T14:27:28.325Z,1.23
2022-08-23T14:29:55.145Z,1.07
2022-08-23T14:32:21.986Z,1.13
2022-08-23T14:34:49.797Z,1.00
2022-08-23T14:40:04.856Z,1.17
2022-08-23T14:42:32.926Z,1.00
2022-08-23T14:44:59.760Z,1.10
2022-08-23T14:47:27.022Z,1.20
2022-08-23T14:49:54.303Z,1.10
2022-08-23T14:52:21.332Z,1.40
2022-08-23T14:54:49.494Z,1.00
2022-08-23T14:57:16.972Z,1.47
2022-08-23T14:59:43.880Z,1.20
2022-08-23T15:02:11.832Z,1.20
2022-08-23T15:04:39.578Z,1.10
2022-08-23T15:07:17.831Z,1.10
2022-08-23T15:09:46.676Z,1.50
2022-08-23T15:12:57.318Z,1.33
2022-08-23T15:15:00.352Z,1.20
2022-08-23T15:17:31.301Z,1.23
2022-08-23T15:19:59.115Z,1.20
2022-08-23T15:22:26.135Z,1.40
2022-08-23T15:24:53.044Z,1.40
2022-08-23T15:27:21.246Z,1.47
2022-08-23T15:29:48.068Z,1.50
2022-08-23T15:32:14.910Z,1.60
2022-08-23T15:34:49.313Z,1.30
2022-08-23T15:37:18.007Z,1.20
2022-08-23T15:39:44.821Z,1.30
2022-08-23T15:42:14.279Z,1.00
2022-08-23T15:44:44.980Z,1.27
2022-08-23T15:47:19.812Z,1.50
2022-08-23T15:49:46.698Z,1.37
2022-08-23T15:52:13.500Z,1.60
2022-08-23T15:54:47.256Z,1.47
2022-08-23T15:57:16.031Z,1.20
2022-08-23T15:59:43.085Z,1.40
2022-08-23T16:02:09.983Z,1.60
2022-08-23T16:04:36.909Z,1.30
2022-08-23T16:07:04.855Z,1.20
2022-08-23T16:09:31.703Z,1.50
2022-08-23T16:12:00.391Z,1.67
2022-08-23T16:14:27.289Z,1.70
2022-08-23T16:16:54.229Z,1.30
2022-08-23T16:19:21.229Z,1.37
2022-08-23T16:21:48.405Z,1.30
2022-08-23T16:24:15.340Z,1.47
2022-08-23T16:26:45.395Z,1.40
2022-08-23T16:29:13.511Z,1.40
2022-08-23T16:31:41.017Z,1.37
2022-08-23T16:34:13.141Z,1.10
2022-08-23T16:36:43.603Z,1.30
2022-08-23T16:39:12.345Z,1.40
2022-08-23T16:41:45.145Z,1.20
2022-08-23T16:44:12.127Z,1.50
2022-08-23T16:46:42.785Z,1.70
2022-08-23T16:49:10.583Z,1.47
2022-08-23T16:51:37.503Z,1.30
2022-08-23T16:54:05.000Z,1.70
2022-08-23T16:56:32.342Z,1.20
2022-08-23T16:58:59.204Z,1.20
2022-08-23T17:01:26.317Z,1.40
2022-08-23T17:03:53.247Z,1.47
2022-08-23T17:06:20.532Z,1.30
2022-08-23T17:08:48.175Z,1.40
2022-08-23T17:11:17.047Z,1.30
2022-08-23T17:13:44.301Z,1.63
2022-08-23T17:16:11.595Z,1.50
2022-08-23T17:18:38.886Z,1.10
2022-08-23T17:21:06.609Z,1.37
2022-08-23T17:23:33.520Z,1.40
2022-08-23T17:26:06.225Z,1.30
2022-08-23T17:28:33.144Z,1.40
2022-08-23T17:30:59.948Z,1.10
2022-08-23T17:33:26.857Z,1.63
2022-08-23T17:35:53.757Z,1.30
2022-08-23T17:38:20.956Z,1.50
2022-08-23T17:40:48.251Z,1.50
2022-08-23T17:43:15.168Z,1.50
2022-08-23T17:45:44.273Z,1.17
2022-08-23T17:48:11.566Z,1.50
2022-08-23T17:50:39.946Z,1.57
2022-08-23T17:53:06.972Z,1.13
2022-08-23T17:55:34.645Z,1.67
2022-08-23T17:58:04.379Z,1.63
2022-08-23T18:00:32.585Z,1.67
2022-08-23T18:02:59.687Z,1.50
2022-08-23T18:05:28.040Z,1.37
2022-08-23T18:07:55.049Z,1.23
2022-08-23T18:10:22.313Z,1.43
2022-08-23T18:12:49.295Z,1.67
2022-08-23T18:15:16.803Z,1.63
2022-08-23T18:17:43.804Z,1.50
2022-08-23T18:20:11.488Z,1.63
2022-08-23T18:22:38.849Z,1.40
2022-08-23T18:25:08.535Z,1.73
2022-08-23T18:27:54.232Z,1.43
2022-08-23T18:30:21.508Z,1.60
2022-08-23T18:32:49.372Z,2.10
2022-08-23T18:35:16.232Z,1.77
2022-08-23T18:37:43.584Z,1.63
2022-08-23T18:40:11.166Z,1.60
2022-08-23T18:42:38.915Z,1.60
2022-08-23T18:45:06.848Z,1.87
2022-08-23T18:47:34.917Z,1.60
2022-08-23T18:50:04.007Z,1.60
2022-08-23T18:52:32.255Z,1.90
2022-08-23T18:54:59.229Z,1.70
2022-08-23T18:57:26.080Z,1.60
2022-08-23T18:59:52.998Z,1.67
2022-08-23T19:02:20.102Z,1.73
2022-08-23T19:04:47.125Z,1.67
2022-08-23T19:07:14.953Z,1.60
2022-08-23T19:09:41.869Z,1.70
2022-08-23T19:12:08.775Z,1.60
2022-08-23T19:14:36.257Z,1.50
2022-08-23T19:17:04.171Z,1.60
2022-08-23T19:19:31.248Z,1.50
2022-08-23T19:21:58.396Z,1.50
2022-08-23T19:24:25.664Z,1.60
2022-08-23T19:26:53.108Z,2.00
2022-08-23T19:29:21.280Z,2.13
2022-08-23T19:31:50.281Z,1.90
2022-08-23T19:34:18.445Z,2.00
2022-08-23T19:36:51.294Z,1.80
2022-08-23T19:39:27.737Z,2.03
2022-08-23T19:41:54.753Z,1.80
2022-08-23T19:44:21.776Z,2.10
2022-08-23T19:46:49.033Z,1.73
2022-08-23T19:49:16.081Z,1.80
2022-08-23T19:51:43.564Z,1.90
2022-08-23T19:54:12.647Z,1.70
2022-08-23T19:56:41.709Z,1.53
2022-08-23T19:59:10.228Z,2.07
2022-08-23T20:01:37.145Z,1.60
2022-08-23T20:04:05.028Z,1.97
2022-08-23T20:06:31.940Z,1.90
2022-08-23T20:08:58.824Z,2.00
2022-08-23T20:11:27.805Z,1.93
2022-08-23T20:13:56.535Z,2.00
2022-08-23T20:16:26.643Z,2.23
2022-08-23T20:18:54.329Z,1.97
2022-08-23T20:21:23.654Z,1.73
2022-08-23T20:24:04.033Z,2.07
2022-08-23T20:26:33.793Z,1.90
2022-08-23T20:29:01.355Z,2.40
2022-08-23T20:31:29.951Z,2.30
2022-08-23T20:33:56.993Z,2.13
2022-08-23T20:36:52.628Z,2.10
2022-08-23T20:39:23.805Z,2.23
2022-08-23T20:41:52.097Z,3.00
2022-08-23T20:44:19.542Z,2.80
2022-08-23T20:46:50.712Z,3.37
2022-08-23T20:49:21.112Z,4.00
2022-08-23T20:51:48.049Z,3.50
2022-08-23T20:54:17.263Z,3.93
2022-08-23T20:56:44.526Z,3.80
2022-08-23T20:59:12.916Z,3.63
2022-08-23T21:01:40.251Z,3.07
2022-08-23T21:04:07.147Z,2.90
2022-08-23T21:06:38.610Z,3.00
2022-08-23T21:09:05.519Z,2.80
2022-08-23T21:11:32.885Z,2.40
2022-08-23T21:13:59.749Z,2.20
2022-08-23T21:16:26.692Z,2.10
2022-08-23T21:18:56.662Z,2.37
2022-08-23T21:21:24.405Z,2.40
2022-08-23T21:23:51.787Z,2.10
2022-08-23T21:26:19.721Z,2.30
2022-08-23T21:28:46.561Z,2.30
2022-08-23T21:31:14.814Z,2.27
2022-08-23T21:33:42.019Z,2.13
2022-08-23T21:36:09.798Z,2.40
2022-08-23T21:38:37.378Z,2.10
2022-08-23T21:41:06.330Z,2.20
2022-08-23T21:43:33.818Z,2.23
2022-08-23T21:46:00.864Z,2.10
2022-08-23T21:48:27.877Z,2.33
2022-08-23T21:50:54.876Z,1.90
2022-08-23T21:53:21.701Z,2.40
2022-08-23T21:55:48.427Z,2.50
2022-08-23T21:58:16.287Z,2.40
2022-08-23T22:00:43.217Z,2.50
2022-08-23T22:03:10.147Z,1.87
2022-08-23T22:05:40.413Z,2.47
2022-08-23T22:08:07.357Z,2.30
2022-08-23T22:10:36.853Z,2.60
2022-08-23T22:13:04.428Z,2.33
2022-08-23T22:15:32.525Z,2.30
2022-08-23T22:18:00.552Z,2.50
2022-08-23T22:20:31.521Z,2.67
2022-08-23T22:22:58.547Z,2.40
2022-08-23T22:25:25.824Z,2.30
2022-08-23T22:27:52.936Z,2.10
2022-08-23T22:30:20.195Z,2.40
2022-08-23T22:32:47.229Z,2.60
2022-08-23T22:35:14.851Z,2.37
2022-08-23T22:38:03.638Z,2.23
2022-08-23T22:40:30.228Z,2.07
2022-08-23T22:42:57.127Z,2.03
2022-08-23T22:45:24.238Z,2.43
2022-08-23T22:47:51.058Z,2.47
2022-08-23T22:50:17.960Z,2.50
2022-08-23T22:52:44.712Z,2.67
2022-08-23T22:55:11.566Z,2.33
2022-08-23T22:57:38.481Z,2.50
2022-08-23T23:00:06.265Z,2.53
2022-08-23T23:02:37.718Z,2.47
2022-08-23T23:05:04.742Z,2.40
2022-08-23T23:07:50.523Z,2.60
2022-08-23T23:10:17.341Z,2.70
2022-08-23T23:12:44.258Z,2.50
2022-08-23T23:15:11.208Z,2.83
2022-08-23T23:17:37.997Z,2.77
2022-08-23T23:20:25.375Z,2.30
2022-08-23T23:22:52.107Z,2.73
2022-08-23T23:25:18.909Z,2.70
2022-08-23T23:27:45.887Z,2.30
2022-08-23T23:30:12.960Z,2.70
2022-08-23T23:32:39.862Z,2.63
2022-08-23T23:35:10.466Z,2.40
2022-08-23T23:37:38.632Z,2.80
2022-08-23T23:40:06.330Z,2.43
2022-08-23T23:42:33.219Z,2.57
2022-08-23T23:45:00.837Z,2.90
2022-08-23T23:47:28.016Z,2.63
2022-08-23T23:49:55.028Z,2.50
2022-08-23T23:52:21.807Z,2.77
2022-08-23T23:54:48.680Z,2.70
2022-08-23T23:57:15.626Z,3.00
2022-08-23T23:59:42.486Z,2.50
